• Join FlightAware (Why Join?)
  • Login
  • US Flag 
06:55AM EDT


 

Airport Tracker/Info


-or-


 

Live Flight TrackerFlight Track Log ✈ AMF6906 ✈ 02-May-2013 ✈ TKPK / SKB - TJSJ / SJU

Flight Track Log - Related Links

Times and Time Zones

All times are in EDT time to prevent confusion due to time zone crossing. See the AMF6906 flight status page for this flight to view local times or setup timezone preferences in your user account.

Time Position Orientation Groundspeed Altitude Reporting Facility
EDT Latitude Longitude Course Direction KTS MPH feet Rate Location/Type
05:45PM 17.3167 -62.9000 285° West 240 276 7,900  Level San Juan Center
05:46PM 17.3970 -62.9614 298° West  Level Estimated
05:47PM 17.4186 -63.0229 270° West  Level Estimated
05:47PM 17.3500 -63.0333 285° West 250 288 7,900  Level San Juan Center
05:48PM 17.4403 -63.0844 289° West  Level Estimated
05:49PM 17.4213 -63.1469 252° West  Level FlightAware Approximate
05:49PM 17.3667 -63.1500 279° West 160 184 12,000  Level San Juan Center
05:50PM 17.4437 -63.2081 285° West  Level Estimated
05:50PM 17.3833 -63.2000 289° West 200 230 12,000  Level San Juan Center
05:51PM 17.4660 -63.2694 285° West  Level Estimated
05:51PM 17.4000 -63.2667 285° West 250 288 12,000  Level San Juan Center
05:54PM 17.4500 -63.4833 284° West 260 299 12,000  Level San Juan Center
05:56PM 17.4667 -63.5833 280° West 250 288 12,000  Level San Juan Center
05:57PM 17.4833 -63.6500 285° West 250 288 12,000  Level San Juan Center
05:58PM 17.5167 -63.7333 293° West 260 299 12,000  Level San Juan Center
05:59PM 17.5500 -63.8000 298° West 260 299 12,000  Level San Juan Center
06:00PM 17.5667 -63.8667 285° West 250 288 12,000  Level San Juan Center
06:02PM 17.6333 -64.0000 298° West 250 288 12,000  Level San Juan Center
06:03PM 17.6500 -64.0667 285° West 260 299 12,000  Level San Juan Center
06:04PM 17.6833 -64.1333 298° West 250 288 12,000  Level San Juan Center
06:05PM 17.7167 -64.2000 298° West 260 299 12,000  Level San Juan Center
06:06PM 17.7500 -64.2833 293° West 260 299 12,000  Level San Juan Center
06:07PM 17.7667 -64.3500 285° West 260 299 12,000  Level San Juan Center
06:08PM 17.8000 -64.4167 298° West 260 299 12,000  Level San Juan Center
06:09PM 17.8333 -64.4833 298° West 260 299 12,000  Level San Juan Center
06:10PM 17.8500 -64.5500 285° West 260 299 12,000  Level San Juan Center
06:11PM 17.8833 -64.6167 298° West 250 288 12,000  Level San Juan Center
06:12PM 17.9167 -64.7000 293° West 260 299 12,000  Level San Juan Center
06:13PM 17.9500 -64.7667 298° West 250 288 12,000  Level San Juan Center
06:14PM 17.9667 -64.8333 285° West 260 299 12,000  Level San Juan Center
06:15PM 18.0000 -64.9000 298° West 260 299 12,000  Level San Juan Center
06:16PM 18.0333 -64.9667 298° West 260 299 12,000  Level San Juan Center
06:17PM 18.0500 -65.0333 285° West 260 299 12,000  Level San Juan Center
06:18PM 18.0833 -65.1167 293° West 260 299 12,000 -300 Level San Juan Center
06:19PM 18.1167 -65.1833 298° West 270 311 11,400 -540 Descending San Juan Center
06:20PM 18.1500 -65.2500 298° West 270 311 11,000 -240 Descending San Juan Center
06:21PM 18.1667 -65.3333 282° West 260 299 11,000  Level San Juan Center
06:22PM 18.2000 -65.4000 298° West 260 299 11,000 -300 Level San Juan Center
06:23PM 18.2333 -65.4667 298° West 270 311 10,400 -1,200 Descending San Juan Center
06:24PM 18.2667 -65.5500 293° West 260 299 8,700 -1,620 Descending San Juan Center
06:25PM 18.2833 -65.6167 285° West 250 288 7,200 -1,980 Descending San Juan Center
06:27PM 18.3500 -65.7500 298° West 250 288 2,800 -1,860 Descending San Juan Center
06:28PM 18.3667 -65.8167 285° West 240 276 1,600 -660 Descending San Juan Center
06:29PM 18.3667 -65.8833 270° West 200 230 1,500 -120 Descending San Juan Center
06:30PM 18.3833 -65.9333 289° West 200 230 1,400 -120 Descending San Juan Center
06:31PM 18.4000 -65.9833 289° West 170 196 1,300 -540 Descending San Juan Center
06:32PM 18.4167 -66.0167 298° West 90 104 400 -900 Descending San Juan Center